sensor_id;sensor_type;location;lat;lon;timestamp;pressure;altitude;pressure_sealevel;temperature;humidity
2268;BME280;11052;43.338;25.502;2023-03-15T00:01:00;99483.38;;;8.83;48.31
2268;BME280;11052;43.338;25.502;2023-03-15T00:03:29;99481.06;;;8.75;48.85
2268;BME280;11052;43.338;25.502;2023-03-15T00:05:56;99477.84;;;8.69;47.68
2268;BME280;11052;43.338;25.502;2023-03-15T00:08:23;99467.31;;;8.75;47.93
2268;BME280;11052;43.338;25.502;2023-03-15T00:10:50;99471.84;;;8.68;47.88
2268;BME280;11052;43.338;25.502;2023-03-15T00:13:18;99474.22;;;8.74;47.37
2268;BME280;11052;43.338;25.502;2023-03-15T00:15:47;99462.97;;;8.75;47.27
2268;BME280;11052;43.338;25.502;2023-03-15T00:18:16;99459.44;;;8.78;48.57
2268;BME280;11052;43.338;25.502;2023-03-15T00:20:44;99458.03;;;8.93;47.48
2268;BME280;11052;43.338;25.502;2023-03-15T00:23:11;99465.22;;;8.84;47.90
2268;BME280;11052;43.338;25.502;2023-03-15T00:25:43;99458.47;;;8.80;47.97
2268;BME280;11052;43.338;25.502;2023-03-15T00:28:11;99466.34;;;8.77;47.61
2268;BME280;11052;43.338;25.502;2023-03-15T00:30:39;99460.16;;;8.81;48.45
2268;BME280;11052;43.338;25.502;2023-03-15T00:33:07;99460.91;;;8.85;48.41
2268;BME280;11052;43.338;25.502;2023-03-15T00:35:38;99450.72;;;8.80;47.69
2268;BME280;11052;43.338;25.502;2023-03-15T00:38:05;99446.28;;;8.84;47.04
2268;BME280;11052;43.338;25.502;2023-03-15T00:40:32;99440.16;;;8.86;48.00
2268;BME280;11052;43.338;25.502;2023-03-15T00:42:59;99435.69;;;8.92;47.46
2268;BME280;11052;43.338;25.502;2023-03-15T00:45:26;99430.44;;;8.93;47.30
2268;BME280;11052;43.338;25.502;2023-03-15T00:47:55;99434.31;;;9.05;46.46
2268;BME280;11052;43.338;25.502;2023-03-15T00:50:24;99430.22;;;8.99;48.18
2268;BME280;11052;43.338;25.502;2023-03-15T00:52:51;99427.56;;;9.01;47.00
2268;BME280;11052;43.338;25.502;2023-03-15T00:55:18;99421.00;;;8.92;47.06
2268;BME280;11052;43.338;25.502;2023-03-15T00:57:46;99417.41;;;8.96;47.30
2268;BME280;11052;43.338;25.502;2023-03-15T01:00:15;99412.97;;;9.00;46.65
2268;BME280;11052;43.338;25.502;2023-03-15T01:02:44;99410.22;;;9.04;47.64
2268;BME280;11052;43.338;25.502;2023-03-15T01:05:13;99404.88;;;8.85;47.65
2268;BME280;11052;43.338;25.502;2023-03-15T01:07:40;99401.56;;;8.82;47.04
2268;BME280;11052;43.338;25.502;2023-03-15T01:10:12;99389.72;;;9.00;47.68
2268;BME280;11052;43.338;25.502;2023-03-15T01:12:39;99387.63;;;8.86;47.16
2268;BME280;11052;43.338;25.502;2023-03-15T01:15:11;99384.72;;;8.95;48.02
2268;BME280;11052;43.338;25.502;2023-03-15T01:17:39;99383.31;;;8.86;48.02
2268;BME280;11052;43.338;25.502;2023-03-15T01:20:08;99374.91;;;8.81;48.61
2268;BME280;11052;43.338;25.502;2023-03-15T01:22:36;99372.47;;;8.77;49.02
2268;BME280;11052;43.338;25.502;2023-03-15T01:25:05;99370.06;;;8.72;48.51
2268;BME280;11052;43.338;25.502;2023-03-15T01:27:33;99368.69;;;8.64;50.88
2268;BME280;11052;43.338;25.502;2023-03-15T01:30:01;99360.22;;;8.60;49.87
2268;BME280;11052;43.338;25.502;2023-03-15T01:32:28;99364.44;;;8.39;50.87
2268;BME280;11052;43.338;25.502;2023-03-15T01:34:55;99368.03;;;8.35;52.71
2268;BME280;11052;43.338;25.502;2023-03-15T01:37:22;99360.50;;;8.28;52.08
2268;BME280;11052;43.338;25.502;2023-03-15T01:39:51;99368.88;;;8.36;50.68
2268;BME280;11052;43.338;25.502;2023-03-15T01:42:18;99361.84;;;8.14;51.91
2268;BME280;11052;43.338;25.502;2023-03-15T01:44:51;99377.06;;;7.97;53.41
2268;BME280;11052;43.338;25.502;2023-03-15T01:47:19;99364.81;;;7.79;55.03
2268;BME280;11052;43.338;25.502;2023-03-15T01:49:48;99367.91;;;7.64;56.36
2268;BME280;11052;43.338;25.502;2023-03-15T01:52:21;99370.59;;;7.34;57.05
2268;BME280;11052;43.338;25.502;2023-03-15T01:54:52;99373.91;;;7.38;56.93
2268;BME280;11052;43.338;25.502;2023-03-15T01:57:23;99364.53;;;7.35;56.79
2268;BME280;11052;43.338;25.502;2023-03-15T01:59:53;99362.84;;;7.34;56.75
2268;BME280;11052;43.338;25.502;2023-03-15T02:02:24;99368.09;;;7.31;57.18
2268;BME280;11052;43.338;25.502;2023-03-15T02:04:55;99361.13;;;7.35;56.56
2268;BME280;11052;43.338;25.502;2023-03-15T02:07:25;99361.25;;;7.30;56.41
2268;BME280;11052;43.338;25.502;2023-03-15T02:10:03;99362.41;;;7.21;57.01
2268;BME280;11052;43.338;25.502;2023-03-15T02:12:34;99357.88;;;7.28;57.01
2268;BME280;11052;43.338;25.502;2023-03-15T02:15:05;99364.81;;;7.26;57.69
2268;BME280;11052;43.338;25.502;2023-03-15T02:17:35;99363.19;;;7.23;57.49
2268;BME280;11052;43.338;25.502;2023-03-15T02:20:10;99366.31;;;7.33;57.28
2268;BME280;11052;43.338;25.502;2023-03-15T02:22:45;99375.75;;;7.34;57.23
2268;BME280;11052;43.338;25.502;2023-03-15T02:25:19;99368.81;;;7.36;56.78
2268;BME280;11052;43.338;25.502;2023-03-15T02:27:49;99373.22;;;7.33;56.86
2268;BME280;11052;43.338;25.502;2023-03-15T02:30:17;99376.69;;;7.32;56.72
2268;BME280;11052;43.338;25.502;2023-03-15T02:32:45;99368.69;;;7.39;57.32
2268;BME280;11052;43.338;25.502;2023-03-15T02:35:21;99370.38;;;7.40;57.05
2268;BME280;11052;43.338;25.502;2023-03-15T02:37:48;99367.13;;;7.35;57.54
2268;BME280;11052;43.338;25.502;2023-03-15T02:40:17;99368.81;;;7.36;57.76
2268;BME280;11052;43.338;25.502;2023-03-15T02:42:46;99365.19;;;7.42;57.04
2268;BME280;11052;43.338;25.502;2023-03-15T02:45:19;99369.53;;;7.40;57.37
2268;BME280;11052;43.338;25.502;2023-03-15T02:47:47;99367.00;;;7.38;57.65
2268;BME280;11052;43.338;25.502;2023-03-15T02:50:15;99370.50;;;7.37;57.73
2268;BME280;11052;43.338;25.502;2023-03-15T02:52:42;99366.47;;;7.29;58.63
2268;BME280;11052;43.338;25.502;2023-03-15T02:55:10;99367.25;;;7.31;59.16
2268;BME280;11052;43.338;25.502;2023-03-15T02:57:37;99374.72;;;7.12;60.28
2268;BME280;11052;43.338;25.502;2023-03-15T03:00:05;99371.50;;;7.05;61.26
2268;BME280;11052;43.338;25.502;2023-03-15T03:02:40;99375.91;;;7.02;61.97
2268;BME280;11052;43.338;25.502;2023-03-15T03:05:08;99377.75;;;6.97;62.38
2268;BME280;11052;43.338;25.502;2023-03-15T03:07:35;99373.63;;;6.93;62.16
2268;BME280;11052;43.338;25.502;2023-03-15T03:10:03;99373.44;;;6.97;62.90
2268;BME280;11052;43.338;25.502;2023-03-15T03:12:31;99383.81;;;6.96;64.05
2268;BME280;11052;43.338;25.502;2023-03-15T03:14:58;99375.41;;;6.90;64.16
2268;BME280;11052;43.338;25.502;2023-03-15T03:17:27;99364.34;;;6.87;64.09
2268;BME280;11052;43.338;25.502;2023-03-15T03:19:56;99364.75;;;6.73;65.00
2268;BME280;11052;43.338;25.502;2023-03-15T03:22:23;99367.25;;;6.76;65.46
2268;BME280;11052;43.338;25.502;2023-03-15T03:24:50;99363.03;;;6.74;65.57
2268;BME280;11052;43.338;25.502;2023-03-15T03:27:18;99360.50;;;6.72;66.26
2268;BME280;11052;43.338;25.502;2023-03-15T03:29:46;99362.09;;;6.76;66.86
2268;BME280;11052;43.338;25.502;2023-03-15T03:32:13;99372.75;;;6.64;67.94
2268;BME280;11052;43.338;25.502;2023-03-15T03:34:40;99375.38;;;6.63;67.79
2268;BME280;11052;43.338;25.502;2023-03-15T03:37:16;99381.72;;;6.51;67.46
2268;BME280;11052;43.338;25.502;2023-03-15T03:39:43;99370.75;;;6.44;67.92
2268;BME280;11052;43.338;25.502;2023-03-15T03:42:10;99364.97;;;6.36;68.15
2268;BME280;11052;43.338;25.502;2023-03-15T03:44:39;99363.47;;;6.28;68.87
2268;BME280;11052;43.338;25.502;2023-03-15T03:47:06;99363.47;;;6.28;68.74
2268;BME280;11052;43.338;25.502;2023-03-15T03:49:34;99369.56;;;6.25;69.05
2268;BME280;11052;43.338;25.502;2023-03-15T03:52:01;99373.03;;;6.24;68.92
2268;BME280;11052;43.338;25.502;2023-03-15T03:54:29;99371.28;;;6.24;69.75
2268;BME280;11052;43.338;25.502;2023-03-15T03:56:57;99377.22;;;6.27;70.34
2268;BME280;11052;43.338;25.502;2023-03-15T03:59:24;99372.09;;;6.27;70.91
2268;BME280;11052;43.338;25.502;2023-03-15T04:01:51;99372.09;;;6.27;71.73
2268;BME280;11052;43.338;25.502;2023-03-15T04:04:18;99372.72;;;6.35;72.25
2268;BME280;11052;43.338;25.502;2023-03-15T04:06:45;99368.00;;;6.19;72.11
2268;BME280;11052;43.338;25.502;2023-03-15T04:09:15;99365.59;;;6.13;72.52
2268;BME280;11052;43.338;25.502;2023-03-15T04:11:44;99367.44;;;6.08;72.33
2268;BME280;11052;43.338;25.502;2023-03-15T04:14:12;99364.13;;;6.05;73.02
2268;BME280;11052;43.338;25.502;2023-03-15T04:16:40;99356.25;;;6.09;72.83
2268;BME280;11052;43.338;25.502;2023-03-15T04:19:07;99357.06;;;6.11;72.66
2268;BME280;11052;43.338;25.502;2023-03-15T04:21:34;99353.66;;;6.11;72.99
2268;BME280;11052;43.338;25.502;2023-03-15T04:24:02;99353.69;;;6.09;73.00
2268;BME280;11052;43.338;25.502;2023-03-15T04:26:30;99352.81;;;6.10;72.49
2268;BME280;11052;43.338;25.502;2023-03-15T04:28:58;99362.09;;;5.83;74.54
2268;BME280;11052;43.338;25.502;2023-03-15T04:31:25;99359.63;;;5.79;74.27
2268;BME280;11052;43.338;25.502;2023-03-15T04:33:53;99362.13;;;5.82;75.32
2268;BME280;11052;43.338;25.502;2023-03-15T04:36:20;99373.91;;;5.92;75.39
2268;BME280;11052;43.338;25.502;2023-03-15T04:38:48;99366.78;;;6.02;75.90
2268;BME280;11052;43.338;25.502;2023-03-15T04:41:16;99374.44;;;6.05;75.74
2268;BME280;11052;43.338;25.502;2023-03-15T04:43:44;99375.91;;;6.12;76.18
2268;BME280;11052;43.338;25.502;2023-03-15T04:46:12;99371.50;;;6.17;76.28
2268;BME280;11052;43.338;25.502;2023-03-15T04:48:39;99359.22;;;6.27;75.94
2268;BME280;11052;43.338;25.502;2023-03-15T04:51:06;99368.47;;;6.34;76.11
2268;BME280;11052;43.338;25.502;2023-03-15T04:53:34;99375.59;;;6.55;75.81
2268;BME280;11052;43.338;25.502;2023-03-15T04:56:01;99368.34;;;6.68;74.64
2268;BME280;11052;43.338;25.502;2023-03-15T04:58:28;99366.44;;;6.45;75.78
2268;BME280;11052;43.338;25.502;2023-03-15T05:00:55;99366.59;;;6.39;76.29
2268;BME280;11052;43.338;25.502;2023-03-15T05:03:24;99363.16;;;6.40;76.62
2268;BME280;11052;43.338;25.502;2023-03-15T05:05:51;99363.31;;;6.34;76.84
2268;BME280;11052;43.338;25.502;2023-03-15T05:08:18;99356.13;;;6.45;76.78
2268;BME280;11052;43.338;25.502;2023-03-15T05:10:45;99352.16;;;6.64;76.57
2268;BME280;11052;43.338;25.502;2023-03-15T05:13:12;99341.47;;;6.76;75.76
2268;BME280;11052;43.338;25.502;2023-03-15T05:15:39;99345.66;;;6.80;75.37
2268;BME280;11052;43.338;25.502;2023-03-15T05:18:07;99345.56;;;6.83;76.48
2268;BME280;11052;43.338;25.502;2023-03-15T05:20:35;99346.31;;;6.87;77.50
2268;BME280;11052;43.338;25.502;2023-03-15T05:23:02;99348.78;;;6.90;78.86
2268;BME280;11052;43.338;25.502;2023-03-15T05:25:30;99348.75;;;6.92;78.70
2268;BME280;11052;43.338;25.502;2023-03-15T05:27:57;99340.91;;;6.95;78.57
2268;BME280;11052;43.338;25.502;2023-03-15T05:30:24;99339.78;;;7.03;80.22
2268;BME280;11052;43.338;25.502;2023-03-15T05:32:51;99343.78;;;7.12;80.30
2268;BME280;11052;43.338;25.502;2023-03-15T05:35:18;99339.09;;;7.24;78.74
2268;BME280;11052;43.338;25.502;2023-03-15T05:37:48;99343.88;;;7.37;78.41
2268;BME280;11052;43.338;25.502;2023-03-15T05:40:15;99342.72;;;7.45;78.69
2268;BME280;11052;43.338;25.502;2023-03-15T05:42:42;99347.19;;;7.40;79.26
2268;BME280;11052;43.338;25.502;2023-03-15T05:45:10;99352.34;;;7.40;76.92
2268;BME280;11052;43.338;25.502;2023-03-15T05:47:37;99346.34;;;7.40;76.18
2268;BME280;11052;43.338;25.502;2023-03-15T05:50:05;99355.16;;;7.33;74.72
2268;BME280;11052;43.338;25.502;2023-03-15T05:52:32;99346.19;;;7.44;75.58
2268;BME280;11052;43.338;25.502;2023-03-15T05:55:00;99344.16;;;7.54;76.37
2268;BME280;11052;43.338;25.502;2023-03-15T05:57:28;99343.69;;;7.68;76.99
2268;BME280;11052;43.338;25.502;2023-03-15T05:59:56;99342.72;;;7.72;76.34
2268;BME280;11052;43.338;25.502;2023-03-15T06:02:23;99337.38;;;7.76;77.10
2268;BME280;11052;43.338;25.502;2023-03-15T06:04:50;99344.22;;;7.77;76.84
2268;BME280;11052;43.338;25.502;2023-03-15T06:07:17;99342.59;;;7.75;77.48
2268;BME280;11052;43.338;25.502;2023-03-15T06:09:45;99342.94;;;7.89;78.27
2268;BME280;11052;43.338;25.502;2023-03-15T06:12:14;99327.88;;;8.02;75.97
2268;BME280;11052;43.338;25.502;2023-03-15T06:14:41;99331.59;;;8.18;76.74
2268;BME280;11052;43.338;25.502;2023-03-15T06:17:08;99327.84;;;8.27;73.07
2268;BME280;11052;43.338;25.502;2023-03-15T06:19:35;99324.78;;;8.40;73.31
2268;BME280;11052;43.338;25.502;2023-03-15T06:22:02;99314.00;;;8.52;70.54
2268;BME280;11052;43.338;25.502;2023-03-15T06:24:30;99312.81;;;8.61;70.56
2268;BME280;11052;43.338;25.502;2023-03-15T06:26:57;99313.22;;;8.72;71.52
2268;BME280;11052;43.338;25.502;2023-03-15T06:29:25;99309.34;;;8.84;71.77
2268;BME280;11052;43.338;25.502;2023-03-15T06:31:53;99301.03;;;8.98;69.80
2268;BME280;11052;43.338;25.502;2023-03-15T06:34:20;99306.50;;;9.12;69.70
2268;BME280;11052;43.338;25.502;2023-03-15T06:36:47;99312.88;;;9.25;70.58
2268;BME280;11052;43.338;25.502;2023-03-15T06:39:17;99304.34;;;9.43;70.58
2268;BME280;11052;43.338;25.502;2023-03-15T06:41:44;99301.88;;;9.61;69.68
2268;BME280;11052;43.338;25.502;2023-03-15T06:44:11;99297.88;;;9.74;68.76
2268;BME280;11052;43.338;25.502;2023-03-15T06:46:40;99307.56;;;9.69;67.66
2268;BME280;11052;43.338;25.502;2023-03-15T06:49:07;99301.25;;;9.76;68.59
2268;BME280;11052;43.338;25.502;2023-03-15T06:51:34;99296.13;;;9.74;68.61
2268;BME280;11052;43.338;25.502;2023-03-15T06:54:01;99299.22;;;9.82;67.33
2268;BME280;11052;43.338;25.502;2023-03-15T06:56:28;99294.69;;;9.88;68.71
2268;BME280;11052;43.338;25.502;2023-03-15T06:58:55;99296.25;;;9.92;66.43
2268;BME280;11052;43.338;25.502;2023-03-15T07:01:22;99297.38;;;10.05;67.15
2268;BME280;11052;43.338;25.502;2023-03-15T07:03:51;99309.50;;;10.25;66.37
2268;BME280;11052;43.338;25.502;2023-03-15T07:06:18;99315.09;;;10.34;66.27
2268;BME280;11052;43.338;25.502;2023-03-15T07:08:45;99311.75;;;10.32;65.57
2268;BME280;11052;43.338;25.502;2023-03-15T07:11:13;99307.03;;;10.40;66.53
2268;BME280;11052;43.338;25.502;2023-03-15T07:13:40;99309.34;;;10.65;66.43
2268;BME280;11052;43.338;25.502;2023-03-15T07:16:07;99310.16;;;10.84;65.88
2268;BME280;11052;43.338;25.502;2023-03-15T07:18:34;99305.09;;;11.00;66.32
2268;BME280;11052;43.338;25.502;2023-03-15T07:21:04;99305.72;;;11.05;65.83
2268;BME280;11052;43.338;25.502;2023-03-15T07:23:32;99303.38;;;11.18;66.20
2268;BME280;11052;43.338;25.502;2023-03-15T07:25:59;99301.00;;;11.13;66.07
2268;BME280;11052;43.338;25.502;2023-03-15T07:28:27;99301.41;;;11.23;64.94
2268;BME280;11052;43.338;25.502;2023-03-15T07:30:54;99307.66;;;11.36;65.87
2268;BME280;11052;43.338;25.502;2023-03-15T07:33:22;99298.72;;;11.59;64.16
2268;BME280;11052;43.338;25.502;2023-03-15T07:35:50;99294.22;;;11.80;62.04
2268;BME280;11052;43.338;25.502;2023-03-15T07:38:20;99298.19;;;11.87;62.02
2268;BME280;11052;43.338;25.502;2023-03-15T07:40:47;99285.25;;;12.03;63.36
2268;BME280;11052;43.338;25.502;2023-03-15T07:43:14;99289.84;;;12.13;62.71
2268;BME280;11052;43.338;25.502;2023-03-15T07:45:42;99288.06;;;12.31;61.32
2268;BME280;11052;43.338;25.502;2023-03-15T07:48:09;99288.41;;;12.57;62.58
2268;BME280;11052;43.338;25.502;2023-03-15T07:50:36;99290.19;;;12.72;61.33
2268;BME280;11052;43.338;25.502;2023-03-15T07:53:04;99288.59;;;12.85;61.34
2268;BME280;11052;43.338;25.502;2023-03-15T07:55:33;99291.69;;;12.92;61.73
2268;BME280;11052;43.338;25.502;2023-03-15T07:58:01;99286.16;;;13.12;61.41
2268;BME280;11052;43.338;25.502;2023-03-15T08:00:28;99282.56;;;13.14;61.32
2268;BME280;11052;43.338;25.502;2023-03-15T08:02:56;99274.81;;;13.29;59.83
2268;BME280;11052;43.338;25.502;2023-03-15T08:05:23;99271.00;;;13.20;59.39
2268;BME280;11052;43.338;25.502;2023-03-15T08:07:50;99273.25;;;13.10;60.12
2268;BME280;11052;43.338;25.502;2023-03-15T08:10:17;99262.16;;;13.07;60.43
2268;BME280;11052;43.338;25.502;2023-03-15T08:12:46;99254.78;;;13.15;58.37
2268;BME280;11052;43.338;25.502;2023-03-15T08:15:13;99253.44;;;13.08;59.65
2268;BME280;11052;43.338;25.502;2023-03-15T08:17:41;99250.00;;;13.23;61.41
2268;BME280;11052;43.338;25.502;2023-03-15T08:20:10;99253.91;;;13.30;60.01
2268;BME280;11052;43.338;25.502;2023-03-15T08:22:39;99263.19;;;13.20;58.85
2268;BME280;11052;43.338;25.502;2023-03-15T08:25:10;99265.25;;;13.29;60.75
2268;BME280;11052;43.338;25.502;2023-03-15T08:27:37;99266.63;;;13.51;60.83
2268;BME280;11052;43.338;25.502;2023-03-15T08:30:09;99270.19;;;13.78;61.93
2268;BME280;11052;43.338;25.502;2023-03-15T08:32:37;99270.59;;;13.86;60.00
2268;BME280;11052;43.338;25.502;2023-03-15T08:35:06;99260.22;;;13.99;58.81
2268;BME280;11052;43.338;25.502;2023-03-15T08:37:33;99258.53;;;14.26;58.32
2268;BME280;11052;43.338;25.502;2023-03-15T08:40:01;99260.22;;;14.41;58.49
2268;BME280;11052;43.338;25.502;2023-03-15T08:42:34;99246.63;;;14.51;58.87
2268;BME280;11052;43.338;25.502;2023-03-15T08:45:01;99255.47;;;14.48;57.48
2268;BME280;11052;43.338;25.502;2023-03-15T08:47:30;99256.75;;;14.55;58.13
2268;BME280;11052;43.338;25.502;2023-03-15T08:49:59;99263.81;;;14.67;56.14
2268;BME280;11052;43.338;25.502;2023-03-15T08:52:28;99249.66;;;14.84;58.07
2268;BME280;11052;43.338;25.502;2023-03-15T08:54:56;99251.88;;;14.90;56.46
2268;BME280;11052;43.338;25.502;2023-03-15T08:57:23;99251.72;;;15.06;59.04
2268;BME280;11052;43.338;25.502;2023-03-15T08:59:51;99251.22;;;15.14;56.04
2268;BME280;11052;43.338;25.502;2023-03-15T09:02:18;99249.06;;;15.20;55.79
2268;BME280;11052;43.338;25.502;2023-03-15T09:04:48;99251.56;;;15.22;54.21
2268;BME280;11052;43.338;25.502;2023-03-15T09:07:15;99250.41;;;15.26;54.77
2268;BME280;11052;43.338;25.502;2023-03-15T09:09:42;99257.88;;;15.45;53.61
2268;BME280;11052;43.338;25.502;2023-03-15T09:12:13;99257.47;;;15.51;51.49
2268;BME280;11052;43.338;25.502;2023-03-15T09:14:41;99264.94;;;15.57;51.12
2268;BME280;11052;43.338;25.502;2023-03-15T09:17:09;99256.75;;;15.87;54.54
2268;BME280;11052;43.338;25.502;2023-03-15T09:19:37;99255.38;;;16.19;56.76
2268;BME280;11052;43.338;25.502;2023-03-15T09:22:06;99251.72;;;16.09;51.18
2268;BME280;11052;43.338;25.502;2023-03-15T09:24:33;99253.25;;;16.37;53.50
2268;BME280;11052;43.338;25.502;2023-03-15T09:27:00;99257.03;;;16.33;52.13
2268;BME280;11052;43.338;25.502;2023-03-15T09:29:27;99251.50;;;16.25;53.60
2268;BME280;11052;43.338;25.502;2023-03-15T09:31:54;99248.72;;;16.02;53.40
2268;BME280;11052;43.338;25.502;2023-03-15T09:34:21;99236.66;;;16.25;51.84
2268;BME280;11052;43.338;25.502;2023-03-15T09:36:49;99237.16;;;16.30;47.81
2268;BME280;11052;43.338;25.502;2023-03-15T09:39:20;99241.81;;;16.01;49.77
2268;BME280;11052;43.338;25.502;2023-03-15T09:41:49;99248.81;;;15.88;50.54
2268;BME280;11052;43.338;25.502;2023-03-15T09:44:29;99243.25;;;16.05;50.60
2268;BME280;11052;43.338;25.502;2023-03-15T09:47:05;99234.16;;;16.11;48.00
2268;BME280;11052;43.338;25.502;2023-03-15T09:49:40;99242.56;;;16.40;49.96
2268;BME280;11052;43.338;25.502;2023-03-15T09:52:20;99231.06;;;16.43;47.97
2268;BME280;11052;43.338;25.502;2023-03-15T09:54:55;99219.81;;;16.53;49.35
2268;BME280;11052;43.338;25.502;2023-03-15T09:57:30;99223.75;;;16.71;49.55
2268;BME280;11052;43.338;25.502;2023-03-15T10:00:02;99222.78;;;16.73;49.50
2268;BME280;11052;43.338;25.502;2023-03-15T10:02:31;99212.63;;;16.44;48.06
2268;BME280;11052;43.338;25.502;2023-03-15T10:05:03;99219.81;;;16.17;47.47
2268;BME280;11052;43.338;25.502;2023-03-15T10:07:32;99217.75;;;15.96;48.10
2268;BME280;11052;43.338;25.502;2023-03-15T10:10:02;99217.13;;;16.05;47.31
2268;BME280;11052;43.338;25.502;2023-03-15T10:12:32;99211.28;;;16.02;46.48
2268;BME280;11052;43.338;25.502;2023-03-15T10:15:29;99207.19;;;16.11;46.48
2268;BME280;11052;43.338;25.502;2023-03-15T10:18:16;99208.06;;;16.35;50.25
2268;BME280;11052;43.338;25.502;2023-03-15T10:20:56;99213.06;;;16.62;49.83
2268;BME280;11052;43.338;25.502;2023-03-15T10:23:36;99208.53;;;16.77;50.99
2268;BME280;11052;43.338;25.502;2023-03-15T10:26:09;99204.41;;;16.85;47.92
2268;BME280;11052;43.338;25.502;2023-03-15T10:28:38;99199.13;;;16.98;49.74
2268;BME280;11052;43.338;25.502;2023-03-15T10:31:11;99187.84;;;17.09;51.59
2268;BME280;11052;43.338;25.502;2023-03-15T10:33:41;99187.03;;;16.84;50.88
2268;BME280;11052;43.338;25.502;2023-03-15T10:36:15;99176.31;;;16.63;52.88
2268;BME280;11052;43.338;25.502;2023-03-15T10:38:43;99179.34;;;16.46;51.21
2268;BME280;11052;43.338;25.502;2023-03-15T10:41:13;99181.84;;;16.24;51.24
2268;BME280;11052;43.338;25.502;2023-03-15T10:43:41;99174.84;;;16.12;51.58
2268;BME280;11052;43.338;25.502;2023-03-15T10:46:22;99181.25;;;16.08;51.82
2268;BME280;11052;43.338;25.502;2023-03-15T10:48:52;99181.84;;;16.24;52.67
2268;BME280;11052;43.338;25.502;2023-03-15T10:51:25;99181.69;;;16.38;52.66
2268;BME280;11052;43.338;25.502;2023-03-15T10:53:55;99177.00;;;16.54;53.30
2268;BME280;11052;43.338;25.502;2023-03-15T10:56:26;99171.16;;;16.51;51.77
2268;BME280;11052;43.338;25.502;2023-03-15T10:58:54;99170.25;;;16.63;52.39
2268;BME280;11052;43.338;25.502;2023-03-15T11:01:24;99171.41;;;16.71;53.44
2268;BME280;11052;43.338;25.502;2023-03-15T11:04:08;99171.38;;;16.48;51.53
2268;BME280;11052;43.338;25.502;2023-03-15T11:06:40;99163.28;;;16.39;51.12
2268;BME280;11052;43.338;25.502;2023-03-15T11:09:09;99166.59;;;16.18;51.43
2268;BME280;11052;43.338;25.502;2023-03-15T11:11:51;99171.59;;;16.21;54.14
2268;BME280;11052;43.338;25.502;2023-03-15T11:14:19;99177.97;;;16.17;51.14
2268;BME280;11052;43.338;25.502;2023-03-15T11:16:48;99175.34;;;16.29;52.93
2268;BME280;11052;43.338;25.502;2023-03-15T11:19:17;99173.69;;;16.16;52.17
2268;BME280;11052;43.338;25.502;2023-03-15T11:21:46;99176.09;;;16.19;52.57
2268;BME280;11052;43.338;25.502;2023-03-15T11:24:26;99177.59;;;16.10;51.77
2268;BME280;11052;43.338;25.502;2023-03-15T11:26:57;99179.03;;;16.14;52.00
2268;BME280;11052;43.338;25.502;2023-03-15T11:29:27;99173.41;;;16.08;50.89
2268;BME280;11052;43.338;25.502;2023-03-15T11:31:57;99177.88;;;16.18;51.28
2268;BME280;11052;43.338;25.502;2023-03-15T11:34:37;99167.94;;;16.23;52.85
2268;BME280;11052;43.338;25.502;2023-03-15T11:37:11;99161.06;;;16.57;51.28
2268;BME280;11052;43.338;25.502;2023-03-15T11:39:43;99154.00;;;16.94;51.53
2268;BME280;11052;43.338;25.502;2023-03-15T11:42:27;99146.84;;;17.31;49.35
2268;BME280;11052;43.338;25.502;2023-03-15T11:44:58;99149.22;;;16.88;46.73
2268;BME280;11052;43.338;25.502;2023-03-15T11:47:38;99146.06;;;16.72;47.62
2268;BME280;11052;43.338;25.502;2023-03-15T11:50:11;99141.88;;;16.69;47.03
2268;BME280;11052;43.338;25.502;2023-03-15T11:52:39;99137.53;;;16.57;47.27
2268;BME280;11052;43.338;25.502;2023-03-15T11:55:15;99133.38;;;16.79;49.80
2268;BME280;11052;43.338;25.502;2023-03-15T11:57:45;99138.75;;;16.88;48.18
2268;BME280;11052;43.338;25.502;2023-03-15T12:03:38;99132.97;;;17.07;50.18
2268;BME280;11052;43.338;25.502;2023-03-15T12:06:33;99136.97;;;16.89;51.36
2268;BME280;11052;43.338;25.502;2023-03-15T12:09:01;99127.66;;;16.85;50.88
2268;BME280;11052;43.338;25.502;2023-03-15T12:11:37;99131.63;;;16.90;52.11
2268;BME280;11052;43.338;25.502;2023-03-15T12:14:23;99130.78;;;16.90;50.83
2268;BME280;11052;43.338;25.502;2023-03-15T12:17:31;99134.25;;;16.66;51.86
2268;BME280;11052;43.338;25.502;2023-03-15T12:19:45;99129.66;;;16.46;51.86
2268;BME280;11052;43.338;25.502;2023-03-15T12:22:14;99124.88;;;16.51;51.38
2268;BME280;11052;43.338;25.502;2023-03-15T12:24:44;99124.19;;;16.73;51.40
2268;BME280;11052;43.338;25.502;2023-03-15T12:27:15;99126.25;;;16.92;49.87
2268;BME280;11052;43.338;25.502;2023-03-15T12:29:45;99129.03;;;17.01;48.44
2268;BME280;11052;43.338;25.502;2023-03-15T12:32:14;99128.03;;;16.91;49.14
2268;BME280;11052;43.338;25.502;2023-03-15T12:34:47;99119.38;;;17.02;48.27
2268;BME280;11052;43.338;25.502;2023-03-15T12:37:19;99126.81;;;17.30;49.43
2268;BME280;11052;43.338;25.502;2023-03-15T12:39:49;99125.03;;;17.20;47.91
2268;BME280;11052;43.338;25.502;2023-03-15T12:45:44;99113.91;;;16.94;47.48
2268;BME280;11052;43.338;25.502;2023-03-15T12:48:27;99117.34;;;16.94;49.76
2268;BME280;11052;43.338;25.502;2023-03-15T12:51:09;99114.13;;;16.91;48.21
2268;BME280;11052;43.338;25.502;2023-03-15T12:53:49;99109.84;;;16.90;47.62
2268;BME280;11052;43.338;25.502;2023-03-15T12:56:32;99108.19;;;17.00;46.07
2268;BME280;11052;43.338;25.502;2023-03-15T12:59:04;99100.84;;;17.16;46.56
2268;BME280;11052;43.338;25.502;2023-03-15T13:01:37;99112.63;;;17.11;47.38
2268;BME280;11052;43.338;25.502;2023-03-15T13:04:08;99105.13;;;17.06;47.02
2268;BME280;11052;43.338;25.502;2023-03-15T13:06:57;99107.00;;;17.04;46.81
2268;BME280;11052;43.338;25.502;2023-03-15T13:09:47;99104.59;;;16.90;47.16
2268;BME280;11052;43.338;25.502;2023-03-15T13:12:21;99108.41;;;16.86;47.07
2268;BME280;11052;43.338;25.502;2023-03-15T13:14:56;99106.97;;;16.82;47.85
2268;BME280;11052;43.338;25.502;2023-03-15T13:17:38;99107.66;;;16.73;48.67
2268;BME280;11052;43.338;25.502;2023-03-15T13:20:17;99114.69;;;16.83;47.38
2268;BME280;11052;43.338;25.502;2023-03-15T13:22:53;99116.44;;;17.07;48.01
2268;BME280;11052;43.338;25.502;2023-03-15T13:25:27;99118.94;;;17.19;47.50